createdAt,value
2018-05-18T00:01:17.525Z,99730.23
2018-05-18T00:03:45.985Z,99727.61
2018-05-18T00:06:14.497Z,99722.83
2018-05-18T00:08:42.995Z,99723.61
2018-05-18T00:11:11.512Z,99724.14
2018-05-18T00:13:40.084Z,99721.20
2018-05-18T00:16:08.608Z,99713.16
2018-05-18T00:18:37.088Z,99703.75
2018-05-18T00:21:05.593Z,99718.00
2018-05-18T00:23:34.118Z,99713.48
2018-05-18T00:26:02.609Z,99721.71
2018-05-18T00:28:31.130Z,99713.03
2018-05-18T00:30:59.620Z,99720.02
2018-05-18T00:33:28.133Z,99724.63
2018-05-18T00:35:56.635Z,99728.09
2018-05-18T00:38:25.144Z,99727.97
2018-05-18T00:40:53.672Z,99721.17
2018-05-18T00:43:22.175Z,99724.73
2018-05-18T00:45:50.715Z,99733.78
2018-05-18T00:48:19.277Z,99725.98
2018-05-18T00:50:47.748Z,99733.31
2018-05-18T00:53:16.257Z,99730.16
2018-05-18T00:55:44.732Z,99742.72
2018-05-18T00:58:13.240Z,99744.53
2018-05-18T01:00:41.732Z,99744.97
2018-05-18T01:03:10.287Z,99749.05
2018-05-18T01:05:38.788Z,99749.02
2018-05-18T01:08:07.274Z,99743.41
2018-05-18T01:10:35.807Z,99754.73
2018-05-18T01:13:04.374Z,99752.04
2018-05-18T01:15:32.904Z,99745.66
2018-05-18T01:18:01.412Z,99751.76
2018-05-18T01:20:29.959Z,99756.98
2018-05-18T01:22:58.492Z,99760.00
2018-05-18T01:25:27.064Z,99759.55
2018-05-18T01:27:55.560Z,99756.07
2018-05-18T01:30:24.040Z,99761.58
2018-05-18T01:32:52.609Z,99756.59
2018-05-18T01:35:21.085Z,99751.64
2018-05-18T01:37:49.592Z,99755.91
2018-05-18T01:40:18.121Z,99750.50
2018-05-18T01:42:46.661Z,99756.59
2018-05-18T01:45:15.133Z,99753.36
2018-05-18T01:47:43.652Z,99756.92
2018-05-18T01:50:12.173Z,99763.36
2018-05-18T01:52:40.640Z,99761.88
2018-05-18T01:55:09.121Z,99760.97
2018-05-18T01:57:37.629Z,99765.80
2018-05-18T02:00:06.145Z,99753.78
2018-05-18T02:02:34.700Z,99768.84
2018-05-18T02:05:03.222Z,99765.42
2018-05-18T02:07:31.742Z,99761.96
2018-05-18T02:10:00.276Z,99749.03
2018-05-18T02:12:28.756Z,99765.15
2018-05-18T02:14:57.252Z,99771.59
2018-05-18T02:17:25.760Z,99764.30
2018-05-18T02:19:54.217Z,99772.10
2018-05-18T02:22:22.725Z,99767.59
2018-05-18T02:24:51.240Z,99776.10
2018-05-18T02:27:19.717Z,99769.11
2018-05-18T02:29:48.232Z,99763.89
2018-05-18T02:32:16.714Z,99767.63
2018-05-18T02:34:45.229Z,99773.50
2018-05-18T02:37:13.722Z,99780.87
2018-05-18T02:39:42.253Z,99781.14
2018-05-18T02:42:10.793Z,99768.03
2018-05-18T02:44:39.312Z,99776.23
2018-05-18T02:47:07.860Z,99779.80
2018-05-18T02:49:36.390Z,99776.94
2018-05-18T02:52:04.933Z,99775.30
2018-05-18T02:54:33.462Z,99770.90
2018-05-18T02:57:01.976Z,99773.23
2018-05-18T02:59:30.519Z,99769.70
2018-05-18T03:01:59.006Z,99750.41
2018-05-18T03:04:27.520Z,99769.24
2018-05-18T03:06:55.977Z,99771.33
2018-05-18T03:09:24.476Z,99778.59
2018-05-18T03:11:53.025Z,99770.53
2018-05-18T03:14:21.524Z,99767.67
2018-05-18T03:16:50.017Z,99766.73
2018-05-18T03:19:18.547Z,99755.25
2018-05-18T03:21:47.086Z,99764.56
2018-05-18T03:24:15.567Z,99754.58
2018-05-18T03:26:44.094Z,99762.92
2018-05-18T03:29:12.601Z,99770.03
2018-05-18T03:31:41.105Z,99766.20
2018-05-18T03:34:09.572Z,99773.61
2018-05-18T03:36:38.076Z,99764.84
2018-05-18T03:39:06.627Z,99778.52
2018-05-18T03:41:35.149Z,99781.36
2018-05-18T03:44:03.634Z,99780.66
2018-05-18T03:46:32.156Z,99792.54
2018-05-18T03:49:00.632Z,99799.07
2018-05-18T03:51:29.144Z,99795.45
2018-05-18T03:53:57.617Z,99801.55
2018-05-18T03:56:26.133Z,99802.23
2018-05-18T03:58:54.604Z,99800.67
2018-05-18T04:01:34.829Z,99804.81
2018-05-18T04:04:14.904Z,99809.86
2018-05-18T04:06:55.012Z,99811.44
2018-05-18T04:09:23.509Z,99806.87
2018-05-18T04:11:51.989Z,99801.62
2018-05-18T04:14:20.500Z,99796.95
2018-05-18T04:16:49.049Z,99800.03
2018-05-18T04:19:17.596Z,99803.91
2018-05-18T04:21:46.090Z,99808.81
2018-05-18T04:24:14.577Z,99812.67
2018-05-18T04:26:43.088Z,99812.94
2018-05-18T04:29:11.580Z,99809.73
2018-05-18T04:31:40.112Z,99804.97
2018-05-18T04:34:08.616Z,99811.20
2018-05-18T04:36:37.102Z,99805.64
2018-05-18T04:39:06.460Z,99801.07
2018-05-18T04:41:34.960Z,99826.36
2018-05-18T04:44:03.472Z,99822.67
2018-05-18T04:46:31.980Z,99826.35
2018-05-18T04:49:00.500Z,99813.09
2018-05-18T04:51:29.001Z,99834.30
2018-05-18T04:53:57.530Z,99825.35
2018-05-18T04:56:26.011Z,99824.52
2018-05-18T04:58:54.548Z,99826.13
2018-05-18T05:01:23.041Z,99833.91
2018-05-18T05:03:51.564Z,99835.63
2018-05-18T05:06:20.040Z,99843.33
2018-05-18T05:08:48.508Z,99835.87
2018-05-18T05:11:17.035Z,99839.68
2018-05-18T05:13:45.532Z,99839.55
2018-05-18T05:16:14.056Z,99844.80
2018-05-18T05:18:42.580Z,99851.41
2018-05-18T05:21:11.070Z,99840.95
2018-05-18T05:23:39.652Z,99841.91
2018-05-18T05:26:08.093Z,99845.75
2018-05-18T05:28:36.619Z,99851.11
2018-05-18T05:31:05.379Z,99850.36
2018-05-18T05:33:33.908Z,99846.89
2018-05-18T05:36:02.410Z,99844.16
2018-05-18T05:38:30.887Z,99849.04
2018-05-18T05:40:59.501Z,99852.28
2018-05-18T05:43:28.020Z,99840.28
2018-05-18T05:45:56.533Z,99842.02
2018-05-18T05:48:25.045Z,99843.59
2018-05-18T05:50:53.526Z,99841.34
2018-05-18T05:53:22.028Z,99843.49
2018-05-18T05:55:50.540Z,99836.34
2018-05-18T05:58:19.016Z,99845.47
2018-05-18T06:00:47.542Z,99841.77
2018-05-18T06:03:16.061Z,99838.55
2018-05-18T06:05:44.541Z,99848.70
2018-05-18T06:08:13.048Z,99843.58
2018-05-18T06:10:41.528Z,99848.23
2018-05-18T06:13:10.068Z,99841.22
2018-05-18T06:15:38.553Z,99842.61
2018-05-18T06:18:07.076Z,99846.83
2018-05-18T06:20:35.598Z,99844.16
2018-05-18T06:23:04.170Z,99855.95
2018-05-18T06:25:32.680Z,99856.45
2018-05-18T06:28:01.190Z,99858.55
2018-05-18T06:30:29.705Z,99859.73
2018-05-18T06:32:58.221Z,99855.22
2018-05-18T06:35:26.694Z,99854.33
2018-05-18T06:37:55.249Z,99847.40
2018-05-18T06:40:23.757Z,99843.20
2018-05-18T06:42:52.265Z,99821.74
2018-05-18T06:45:20.805Z,99842.72
2018-05-18T06:47:49.348Z,99831.76
2018-05-18T06:50:17.844Z,99836.23
2018-05-18T06:52:46.373Z,99844.14
2018-05-18T06:55:14.899Z,99836.13
2018-05-18T06:57:43.428Z,99836.75
2018-05-18T07:00:11.971Z,99838.92
2018-05-18T07:02:40.533Z,99841.50
2018-05-18T07:05:09.039Z,99827.48
2018-05-18T07:07:37.524Z,99831.78
2018-05-18T07:10:06.089Z,99831.19
2018-05-18T07:12:34.634Z,99830.03
2018-05-18T07:15:03.343Z,99824.45
2018-05-18T07:17:31.832Z,99829.45
2018-05-18T07:20:00.376Z,99822.94
2018-05-18T07:22:28.859Z,99819.64
2018-05-18T07:24:57.364Z,99818.05
2018-05-18T07:27:25.885Z,99828.83
2018-05-18T07:29:54.402Z,99830.05
2018-05-18T07:32:22.964Z,99826.70
2018-05-18T07:34:51.499Z,99822.61
2018-05-18T07:37:19.988Z,99815.30
2018-05-18T07:39:48.504Z,99816.16
2018-05-18T07:42:17.041Z,99810.50
2018-05-18T07:44:45.546Z,99826.11
2018-05-18T07:47:14.026Z,99827.17
2018-05-18T07:49:42.682Z,99814.56
2018-05-18T07:52:11.239Z,99819.67
2018-05-18T07:54:39.768Z,99818.20
2018-05-18T07:57:08.245Z,99808.55
2018-05-18T07:59:36.772Z,99812.85
2018-05-18T08:02:05.281Z,99817.22
2018-05-18T08:04:33.833Z,99811.39
2018-05-18T08:07:02.309Z,99814.61
2018-05-18T08:09:30.820Z,99818.55
2018-05-18T08:11:59.301Z,99816.68
2018-05-18T08:14:27.837Z,99820.67
2018-05-18T08:16:56.301Z,99801.28
2018-05-18T08:19:24.842Z,99805.40
2018-05-18T08:21:53.401Z,99800.11
2018-05-18T08:24:21.879Z,99797.58
2018-05-18T08:27:02.182Z,99787.25
2018-05-18T08:29:36.421Z,99790.25
2018-05-18T08:32:05.109Z,99798.62
2018-05-18T08:34:33.616Z,99799.46
2018-05-18T08:37:02.150Z,99800.27
2018-05-18T08:39:30.629Z,99803.02
2018-05-18T08:41:59.122Z,99802.95
2018-05-18T08:44:27.749Z,99796.61
2018-05-18T08:46:56.221Z,99799.38
2018-05-18T08:49:24.724Z,99787.95
2018-05-18T08:51:53.233Z,99786.12
2018-05-18T08:54:21.787Z,99784.12
2018-05-18T08:56:50.361Z,99786.42
2018-05-18T08:59:18.871Z,99794.65
2018-05-18T09:01:47.344Z,99786.69
2018-05-18T09:04:15.925Z,99788.73
2018-05-18T09:06:44.517Z,99783.66
2018-05-18T09:09:13.024Z,99776.48
2018-05-18T09:11:41.504Z,99787.17
2018-05-18T09:14:10.013Z,99772.86
2018-05-18T09:16:38.519Z,99780.66
2018-05-18T09:19:07.047Z,99774.80
2018-05-18T09:21:35.573Z,99768.17
2018-05-18T09:24:04.089Z,99767.34
2018-05-18T09:26:32.654Z,99760.27
2018-05-18T09:29:01.164Z,99755.17
2018-05-18T09:31:29.781Z,99760.02
2018-05-18T09:33:58.295Z,99745.70
2018-05-18T09:36:26.836Z,99751.31
2018-05-18T09:38:55.325Z,99743.03
2018-05-18T09:41:23.820Z,99746.09
2018-05-18T09:43:52.331Z,99742.50
2018-05-18T09:46:20.809Z,99748.47
2018-05-18T09:48:49.796Z,99740.94
2018-05-18T09:51:18.321Z,99739.75
2018-05-18T09:53:46.838Z,99736.97
2018-05-18T09:56:15.410Z,99734.67
2018-05-18T09:58:43.921Z,99715.30
2018-05-18T10:01:12.397Z,99725.22
2018-05-18T10:03:40.929Z,99726.73
2018-05-18T10:06:09.441Z,99723.91
2018-05-18T10:08:37.960Z,99717.63
2018-05-18T10:11:06.500Z,99710.09
2018-05-18T10:13:34.961Z,99712.47
2018-05-18T10:16:03.434Z,99708.72
2018-05-18T10:18:32.026Z,99701.63
2018-05-18T10:21:00.484Z,99703.79
2018-05-18T10:23:29.008Z,99707.43
2018-05-18T10:25:57.518Z,99696.01
2018-05-18T10:28:27.248Z,99694.63
2018-05-18T10:30:55.768Z,99691.41
2018-05-18T10:33:24.280Z,99681.42
2018-05-18T10:35:52.756Z,99680.17
2018-05-18T10:38:21.319Z,99667.39
2018-05-18T10:40:49.798Z,99662.51
2018-05-18T10:43:18.357Z,99650.31
2018-05-18T10:45:46.886Z,99660.44
2018-05-18T10:48:15.401Z,99655.79
2018-05-18T10:50:44.593Z,99644.93
2018-05-18T10:53:13.188Z,99649.59
2018-05-18T10:55:41.732Z,99648.45
2018-05-18T10:58:10.237Z,99650.45
2018-05-18T11:00:38.722Z,99642.61
2018-05-18T11:03:07.255Z,99632.84
2018-05-18T11:05:35.814Z,99626.83
2018-05-18T11:08:04.425Z,99638.30
2018-05-18T11:10:32.989Z,99629.92
2018-05-18T11:13:01.473Z,99621.61
2018-05-18T11:15:30.052Z,99616.11
2018-05-18T11:17:58.572Z,99609.81
2018-05-18T11:20:27.094Z,99607.39
2018-05-18T11:22:55.617Z,99575.78
2018-05-18T11:25:24.110Z,99607.21
2018-05-18T11:27:52.645Z,99602.02
2018-05-18T11:30:21.163Z,99601.93
2018-05-18T11:32:49.693Z,99599.34
2018-05-18T11:35:18.188Z,99589.92
2018-05-18T11:37:46.680Z,99590.50
2018-05-18T11:40:15.232Z,99582.56
2018-05-18T11:42:43.811Z,99593.83
2018-05-18T11:45:12.338Z,99584.91
2018-05-18T11:47:40.837Z,99586.32
2018-05-18T11:50:09.380Z,99558.97
2018-05-18T11:52:37.894Z,99570.75
2018-05-18T11:55:06.433Z,99556.18
2018-05-18T11:57:34.904Z,99560.45
2018-05-18T12:00:03.432Z,99558.03
2018-05-18T12:02:31.973Z,99556.16
2018-05-18T12:05:00.514Z,99552.36
2018-05-18T12:07:28.997Z,99547.77
2018-05-18T12:09:57.524Z,99548.66
2018-05-18T12:12:26.066Z,99537.47
2018-05-18T12:14:54.722Z,99428.38
2018-05-18T12:17:23.243Z,99534.77
2018-05-18T12:19:51.730Z,99551.03
2018-05-18T12:22:20.241Z,99541.78
2018-05-18T12:24:48.726Z,99548.56
2018-05-18T12:27:17.255Z,99548.33
2018-05-18T12:29:45.802Z,99550.55
2018-05-18T12:32:14.276Z,99540.23
2018-05-18T12:34:42.795Z,99542.84
2018-05-18T12:37:11.273Z,99528.87
2018-05-18T12:39:39.825Z,99515.34
2018-05-18T12:42:08.312Z,99517.38
2018-05-18T12:44:36.845Z,99523.52
2018-05-18T12:47:05.363Z,99517.38
2018-05-18T12:49:33.920Z,99512.20
2018-05-18T12:52:02.426Z,99513.43
2018-05-18T12:54:30.949Z,99514.24
2018-05-18T12:56:59.488Z,99512.12
2018-05-18T12:59:28.046Z,99511.81
2018-05-18T13:01:56.537Z,99504.44
2018-05-18T13:04:25.097Z,99502.27
2018-05-18T13:06:53.616Z,99497.04
2018-05-18T13:09:22.136Z,99499.47
2018-05-18T13:11:50.613Z,99498.31
2018-05-18T13:14:19.124Z,99497.04
2018-05-18T13:19:15.161Z,99492.95
2018-05-18T13:21:43.673Z,99497.78
2018-05-18T13:24:12.184Z,99491.56
2018-05-18T13:26:40.764Z,99473.59
2018-05-18T13:29:09.262Z,99480.15
2018-05-18T13:31:37.792Z,99480.81
2018-05-18T13:34:06.338Z,99475.49
2018-05-18T13:36:34.829Z,99475.16
2018-05-18T13:39:03.429Z,99464.38
2018-05-18T13:41:32.008Z,99475.19
2018-05-18T13:44:00.519Z,99468.67
2018-05-18T13:46:29.078Z,99474.23
2018-05-18T13:48:57.557Z,99473.59
2018-05-18T13:51:26.080Z,99469.36
2018-05-18T13:53:54.563Z,99466.17
2018-05-18T13:56:23.080Z,99467.56
2018-05-18T13:58:51.566Z,99466.87
2018-05-18T14:01:20.076Z,99467.73
2018-05-18T14:03:48.585Z,99464.30
2018-05-18T14:06:17.114Z,99454.70
2018-05-18T14:08:45.628Z,99448.24
2018-05-18T14:11:14.082Z,99442.98
2018-05-18T14:13:42.586Z,99451.01
2018-05-18T14:16:11.073Z,99425.86
2018-05-18T14:18:39.583Z,99449.61
2018-05-18T14:21:08.064Z,99449.47
2018-05-18T14:23:36.572Z,99431.78
2018-05-18T14:26:05.130Z,99440.80
2018-05-18T14:28:33.608Z,99425.00
2018-05-18T14:31:02.112Z,99438.17
2018-05-18T14:33:30.649Z,99433.38
2018-05-18T14:35:59.132Z,99439.80
2018-05-18T14:38:27.649Z,99434.98
2018-05-18T14:40:56.149Z,99435.72
2018-05-18T14:43:24.657Z,99418.55
2018-05-18T14:45:53.144Z,99433.75
2018-05-18T14:48:21.657Z,99421.97
2018-05-18T14:50:50.118Z,99413.53
2018-05-18T14:53:18.641Z,99429.78
2018-05-18T14:55:47.126Z,99405.33
2018-05-18T14:58:15.696Z,99424.43
2018-05-18T15:00:44.190Z,99417.63
2018-05-18T15:03:12.668Z,99422.26
2018-05-18T15:05:41.272Z,99411.33
2018-05-18T15:08:09.696Z,99412.52
2018-05-18T15:10:38.216Z,99406.27
2018-05-18T15:13:06.689Z,99411.12
2018-05-18T15:15:35.224Z,99406.37
2018-05-18T15:18:03.753Z,99395.96
2018-05-18T15:20:32.272Z,99404.73
2018-05-18T15:23:00.754Z,99403.38
2018-05-18T15:25:29.281Z,99404.88
2018-05-18T15:27:57.753Z,99404.00
2018-05-18T15:30:26.236Z,99410.88
2018-05-18T15:32:54.742Z,99410.42
2018-05-18T15:35:23.257Z,99419.95
2018-05-18T15:37:51.775Z,99426.77
2018-05-18T15:40:20.293Z,99409.75
2018-05-18T15:42:48.972Z,99413.05
2018-05-18T15:45:17.518Z,99416.02
2018-05-18T15:47:45.998Z,99406.48
2018-05-18T15:50:14.517Z,99404.44
2018-05-18T15:52:42.987Z,99403.34
2018-05-18T15:55:11.527Z,99400.00
2018-05-18T15:57:40.046Z,99399.95
2018-05-18T16:00:08.533Z,99403.96
2018-05-18T16:02:37.060Z,99410.23
2018-05-18T16:05:05.543Z,99408.31
2018-05-18T16:07:34.064Z,99408.98
2018-05-18T16:10:02.532Z,99405.80
2018-05-18T16:12:31.066Z,99417.52
2018-05-18T16:14:59.590Z,99420.19
2018-05-18T16:17:28.062Z,99432.69
2018-05-18T16:19:56.585Z,99421.38
2018-05-18T16:22:25.053Z,99416.14
2018-05-18T16:24:53.533Z,99418.11
2018-05-18T16:27:22.048Z,99414.05
2018-05-18T16:29:50.517Z,99406.30
2018-05-18T16:32:19.029Z,99405.28
2018-05-18T16:34:47.534Z,99412.74
2018-05-18T16:37:16.000Z,99397.50
2018-05-18T16:39:44.512Z,99387.92
2018-05-18T16:42:13.000Z,99396.81
2018-05-18T16:44:41.563Z,99391.64
2018-05-18T16:47:10.196Z,99385.80
2018-05-18T16:49:38.664Z,99390.19
2018-05-18T16:52:07.114Z,99381.85
2018-05-18T16:54:35.624Z,99371.50
2018-05-18T16:57:04.110Z,99376.02
2018-05-18T16:59:32.602Z,99372.71
2018-05-18T17:02:01.064Z,99335.39
2018-05-18T17:04:29.584Z,99369.57
2018-05-18T17:06:58.063Z,99363.27
2018-05-18T17:09:26.597Z,99364.45
2018-05-18T17:11:55.057Z,99362.32
2018-05-18T17:14:23.568Z,99366.70
2018-05-18T17:16:52.014Z,99366.09
2018-05-18T17:19:20.551Z,99369.02
2018-05-18T17:21:49.033Z,99371.93
2018-05-18T17:24:17.520Z,99381.79
2018-05-18T17:26:45.960Z,99383.06
2018-05-18T17:29:14.465Z,99386.55
2018-05-18T17:31:42.988Z,99387.70
2018-05-18T17:34:11.482Z,99396.69
2018-05-18T17:36:39.990Z,99392.28
2018-05-18T17:39:08.525Z,99387.78
2018-05-18T17:41:36.992Z,99367.48
2018-05-18T17:44:05.452Z,99366.95
2018-05-18T17:46:33.939Z,99369.41
2018-05-18T17:49:02.450Z,99393.78
2018-05-18T17:51:30.953Z,99404.22
2018-05-18T17:53:59.411Z,99417.01
2018-05-18T17:56:27.912Z,99433.70
2018-05-18T17:58:56.372Z,99438.81
2018-05-18T18:01:24.930Z,99460.63
2018-05-18T18:03:53.414Z,99466.23
2018-05-18T18:06:22.120Z,99492.11
2018-05-18T18:08:51.317Z,99468.05
2018-05-18T18:11:19.787Z,99471.14
2018-05-18T18:13:48.289Z,99485.80
2018-05-18T18:16:16.773Z,99487.60
2018-05-18T18:18:46.106Z,99496.67
2018-05-18T18:21:14.612Z,99496.16
2018-05-18T18:23:43.075Z,99515.84
2018-05-18T18:26:11.525Z,99493.38
2018-05-18T18:28:40.124Z,99472.38
2018-05-18T18:31:08.534Z,99456.78
2018-05-18T18:33:37.008Z,99447.91
2018-05-18T18:36:05.481Z,99448.62
2018-05-18T18:38:33.932Z,99471.39
2018-05-18T18:41:02.431Z,99479.26
2018-05-18T18:43:30.867Z,99486.02
2018-05-18T18:45:59.370Z,99483.75
2018-05-18T18:48:27.846Z,99488.17
2018-05-18T18:50:56.336Z,99499.61
2018-05-18T18:53:24.788Z,99504.17
2018-05-18T18:55:53.261Z,99516.95
2018-05-18T18:58:21.740Z,99517.41
2018-05-18T19:00:50.235Z,99526.38
2018-05-18T19:03:18.721Z,99506.34
2018-05-18T19:05:47.150Z,99543.81
2018-05-18T19:08:15.644Z,99533.84
2018-05-18T19:10:44.097Z,99553.54
2018-05-18T19:13:12.588Z,99558.28
2018-05-18T19:15:41.058Z,99559.72
2018-05-18T19:18:09.541Z,99567.44
2018-05-18T19:20:38.001Z,99567.80
2018-05-18T19:23:06.472Z,99576.00
2018-05-18T19:25:34.933Z,99585.20
2018-05-18T19:28:03.408Z,99586.52
2018-05-18T19:30:31.941Z,99587.77
2018-05-18T19:33:00.431Z,99594.31
2018-05-18T19:35:28.974Z,99605.09
2018-05-18T19:37:57.430Z,99593.50
2018-05-18T19:40:25.932Z,99577.03
2018-05-18T19:42:54.412Z,99583.58
2018-05-18T19:45:22.896Z,99579.86
2018-05-18T19:47:51.350Z,99581.30
2018-05-18T19:50:19.832Z,99576.30
2018-05-18T19:52:48.329Z,99562.03
2018-05-18T19:55:16.781Z,99567.73
2018-05-18T19:57:45.248Z,99563.20
2018-05-18T20:00:13.725Z,99561.41
2018-05-18T20:02:42.205Z,99554.94
2018-05-18T20:05:10.661Z,99559.03
2018-05-18T20:07:39.144Z,99556.95
2018-05-18T20:10:07.597Z,99555.64
2018-05-18T20:12:36.094Z,99562.91
2018-05-18T20:15:04.572Z,99574.02
2018-05-18T20:17:33.053Z,99577.02
2018-05-18T20:20:01.534Z,99588.55
2018-05-18T20:22:29.976Z,99591.45
2018-05-18T20:24:58.533Z,99599.37
2018-05-18T20:27:26.987Z,99624.31
2018-05-18T20:29:55.472Z,99616.81
2018-05-18T20:32:23.977Z,99616.03
2018-05-18T20:34:52.474Z,99626.90
2018-05-18T20:37:20.964Z,99632.34
2018-05-18T20:39:49.404Z,99627.82
2018-05-18T20:42:17.897Z,99627.73
2018-05-18T20:44:46.433Z,99632.98
2018-05-18T20:47:14.877Z,99629.14
2018-05-18T20:49:43.348Z,99644.54
2018-05-18T20:52:11.855Z,99644.81
2018-05-18T20:54:40.300Z,99643.69
2018-05-18T20:57:08.784Z,99641.05
2018-05-18T20:59:37.258Z,99641.59
2018-05-18T21:02:05.764Z,99636.98
2018-05-18T21:04:34.208Z,99644.48
2018-05-18T21:07:02.729Z,99641.45
2018-05-18T21:09:31.246Z,99640.13
2018-05-18T21:11:59.738Z,99642.89
2018-05-18T21:14:28.193Z,99631.64
2018-05-18T21:16:56.693Z,99637.20
2018-05-18T21:19:25.161Z,99636.44
2018-05-18T21:21:53.680Z,99642.64
2018-05-18T21:24:22.151Z,99643.31
2018-05-18T21:26:50.641Z,99645.10
2018-05-18T21:29:19.120Z,99626.56
2018-05-18T21:31:47.564Z,99636.48
2018-05-18T21:34:16.082Z,99636.94
2018-05-18T21:36:44.591Z,99635.48
2018-05-18T21:39:13.032Z,99637.24
2018-05-18T21:41:41.512Z,99626.34
2018-05-18T21:44:09.973Z,99628.23
2018-05-18T21:46:38.457Z,99631.28
2018-05-18T21:49:06.989Z,99618.64
2018-05-18T21:51:35.438Z,99619.91
2018-05-18T21:54:03.946Z,99617.81
2018-05-18T21:56:32.458Z,99626.39
2018-05-18T21:59:00.901Z,99624.52
2018-05-18T22:01:29.409Z,99624.45
2018-05-18T22:03:57.880Z,99618.33
2018-05-18T22:06:26.409Z,99631.09
2018-05-18T22:08:54.830Z,99624.52
2018-05-18T22:11:23.336Z,99627.42
2018-05-18T22:13:51.784Z,99625.02
2018-05-18T22:16:20.304Z,99622.97
2018-05-18T22:18:48.852Z,99606.30
2018-05-18T22:21:17.332Z,99616.55
2018-05-18T22:23:45.832Z,99628.83
2018-05-18T22:26:14.304Z,99622.11
2018-05-18T22:28:42.788Z,99631.02
2018-05-18T22:31:11.258Z,99611.40
2018-05-18T22:33:39.761Z,99613.69
2018-05-18T22:36:08.233Z,99607.67
2018-05-18T22:38:36.769Z,99605.55
2018-05-18T22:41:05.217Z,99600.44
2018-05-18T22:43:33.732Z,99585.28
2018-05-18T22:46:02.161Z,99577.00
2018-05-18T22:48:30.652Z,99577.97
2018-05-18T22:50:59.137Z,99571.44
2018-05-18T22:53:27.648Z,99574.69
2018-05-18T22:55:56.156Z,99581.72
2018-05-18T22:58:24.607Z,99565.38
2018-05-18T23:00:53.092Z,99577.65
2018-05-18T23:03:21.573Z,99580.94
2018-05-18T23:05:50.108Z,99583.28
2018-05-18T23:08:18.576Z,99592.52
2018-05-18T23:10:47.112Z,99602.95
2018-05-18T23:13:15.681Z,99596.16
2018-05-18T23:15:44.160Z,99604.12
2018-05-18T23:18:12.684Z,99613.13
2018-05-18T23:20:41.189Z,99633.92
2018-05-18T23:23:09.670Z,99635.19
2018-05-18T23:25:38.198Z,99646.69
2018-05-18T23:28:06.693Z,99655.81
2018-05-18T23:30:35.208Z,99665.37
2018-05-18T23:33:03.688Z,99655.20
2018-05-18T23:35:32.164Z,99655.65
2018-05-18T23:38:00.683Z,99639.65
2018-05-18T23:40:29.162Z,99636.45
2018-05-18T23:42:57.707Z,99631.46
2018-05-18T23:45:26.191Z,99627.55
2018-05-18T23:47:54.759Z,99632.84
2018-05-18T23:50:23.236Z,99623.61
2018-05-18T23:52:51.748Z,99630.06
2018-05-18T23:55:20.229Z,99627.70
2018-05-18T23:57:48.705Z,99621.81
